Airfield :
LOGIN :

Register | Disclaimer

   EN    FR    IT 

 










Legend :    VFR   Marginal VFR   IFR   Intensive IFR   Very Intensive IFR
Visi :
Ceiling :
>= 8 km
>= 3000ft
5 to 8 km
1000 to 3000 ft
1500m to 5 km
500 to 1000 ft
800 to 1500m
200 to 500 ft
< 800m
< 200 ft
Symbols :   Thunderstorms  Fog  Heavy snow  Heavy precipitations  Wind > 20 kt
SIGMETs :     Misc.  Thunderstorms  Icing  Turbulence  Mountain Waves  Volcanic Ashes






- Airport Elevation : 359 ft
- IATA code : BVA


LFOB - Beauvais

CURRENT METAR :
  • 050630Z AUTO 02008KT 9999 SCT021 OVC028 03/00 Q1025 TEMPO BKN010

EXPIRED METARs :
  • 050600Z AUTO 01004KT 9999 SCT021 BKN027 OVC032 03/00 Q1025 NOSIG
  • 050530Z AUTO 02005KT 9999 OVC032 03/00 Q1025 TEMPO BKN007
  • 050500Z AUTO 02006KT 9999 OVC033 03/01 Q1025 TEMPO BKN007
  • 050430Z AUTO 02008KT 9999 OVC032 03/00 Q1025 TEMPO BKN007
  • 050400Z AUTO 01007KT 9999 OVC033 03/01 Q1025 TEMPO BKN007

TAF TAF LFOB
Valid from the 05 at 06:00 until the 06 at 06:00 UTC


050500Z 0506/0606 04010KT 9999 SCT030
PROB30
TEMPO 0508/0510 BKN010
ATIS : +33 3 44 11 49 28



MET'MAP, your aeronautical weather chart ! - Copyright ORBIFLY December 2007 - Disclaimer

ORBIFLY MET'MAP TEAM :

Programming & Development : Alexandra Zaïnal
Concept & original design : Baudouin d'Aumeries
Assistance for programming : Marc-Olivier Méhu
Technical & hardware support : Manuel Goepfert

Contact : metmap@orbifly.com




SOURCES & CREDITS :

   NOAA